Time;durP1;ratioP1;P1;durP2;ratioP2;P2;SDS_P1;SDS_P2;PMS_P1;PMS_P2;Temp;Humidity;BMP_temperature;BMP_pressure;BME280_temperature;BME280_humidity;BME280_pressure;Samples;Min_cycle;Max_cycle;Signal;HPM_P1;HPM_P2
2023/10/21 00:00:45;;;;;;;4.07;1.80;;;;;;;8.15;100.00;98641.41;5073465;28;20445;-72
2023/10/21 00:03:12;;;;;;;7.70;2.10;;;;;;;8.12;100.00;98652.06;5073556;28;20438;-72
2023/10/21 00:05:38;;;;;;;4.77;1.40;;;;;;;8.09;100.00;98661.59;5073916;28;20520;-72
2023/10/21 00:08:07;;;;;;;4.13;1.53;;;;;;;8.09;100.00;98675.84;5073664;28;20528;-72
2023/10/21 00:10:33;;;;;;;4.83;1.40;;;;;;;8.10;100.00;98682.03;5082771;22;20497;-67
2023/10/21 00:13:00;;;;;;;2.20;0.87;;;;;;;8.13;100.00;98692.16;5054273;28;20813;-67
2023/10/21 00:15:27;;;;;;;3.53;1.77;;;;;;;8.15;100.00;98689.94;5059700;28;20429;-67
2023/10/21 00:17:53;;;;;;;3.07;1.43;;;;;;;8.17;100.00;98695.78;5074042;28;20496;-66
2023/10/21 00:20:20;;;;;;;3.90;1.77;;;;;;;8.18;100.00;98697.34;5073646;28;20477;-66
2023/10/21 00:22:47;;;;;;;3.07;1.70;;;;;;;8.22;100.00;98692.09;5073731;28;20530;-66
2023/10/21 00:25:15;;;;;;;4.87;2.37;;;;;;;8.24;100.00;98697.97;5073409;28;20864;-66
2023/10/21 00:27:41;;;;;;;3.87;2.10;;;;;;;8.28;100.00;98698.88;5067122;28;20466;-67
2023/10/21 00:30:08;;;;;;;6.57;2.83;;;;;;;8.29;100.00;98695.03;5053671;28;20528;-67
2023/10/21 00:32:35;;;;;;;3.53;1.70;;;;;;;8.23;100.00;98691.75;5053554;28;20441;-67
2023/10/21 00:35:03;;;;;;;3.97;1.47;;;;;;;8.27;100.00;98692.66;5053902;28;20957;-67
2023/10/21 00:37:30;;;;;;;3.93;1.60;;;;;;;8.31;100.00;98693.56;5053434;28;20485;-67
2023/10/21 00:39:57;;;;;;;3.40;1.90;;;;;;;8.32;100.00;98683.56;5053209;28;20584;-67
2023/10/21 00:42:25;;;;;;;2.60;1.13;;;;;;;8.31;100.00;98671.22;5053398;28;20442;-67
2023/10/21 00:44:52;;;;;;;6.20;2.83;;;;;;;8.30;100.00;98673.13;5053797;28;20462;-67
2023/10/21 00:47:19;;;;;;;4.13;1.50;;;;;;;8.31;100.00;98674.69;5053742;28;20545;-67
2023/10/21 00:49:46;;;;;;;3.13;1.37;;;;;;;8.31;100.00;98674.69;5053435;28;20434;-67
2023/10/21 00:52:14;;;;;;;4.43;1.63;;;;;;;8.29;100.00;98676.94;5053599;28;20953;-67
2023/10/21 00:54:40;;;;;;;4.13;1.70;;;;;;;8.32;100.00;98679.00;5053665;28;20438;-66
2023/10/21 00:57:08;;;;;;;3.90;2.37;;;;;;;8.34;100.00;98676.75;5053508;28;20553;-66
2023/10/21 00:59:37;;;;;;;3.77;1.47;;;;;;;8.30;100.00;98689.31;5053599;28;20484;-66
2023/10/21 01:02:04;;;;;;;6.03;2.50;;;;;;;8.31;100.00;98695.50;5066330;28;20449;-66
2023/10/21 01:04:30;;;;;;;3.40;1.97;;;;;;;8.29;100.00;98712.00;5060306;28;20481;-66
2023/10/21 01:06:57;;;;;;;4.63;1.90;;;;;;;8.31;100.00;98707.06;5053556;28;20462;-66
2023/10/21 01:09:26;;;;;;;4.13;2.00;;;;;;;8.26;100.00;98701.88;5059821;28;20445;-66
2023/10/21 01:11:52;;;;;;;6.33;1.97;;;;;;;8.30;100.00;98705.50;5077339;28;20452;-67
2023/10/21 01:14:19;;;;;;;5.60;2.50;;;;;;;8.30;100.00;98716.28;5076756;28;20965;-67
2023/10/21 01:16:47;;;;;;;5.50;2.00;;;;;;;8.32;100.00;98724.84;5066155;28;20462;-67
2023/10/21 01:19:16;;;;;;;4.93;1.50;;;;;;;8.33;100.00;98718.31;5074303;28;21001;-68
2023/10/21 01:21:42;;;;;;;6.83;2.50;;;;;;;8.35;100.00;98720.69;5072281;28;20513;-68
2023/10/21 01:24:10;;;;;;;5.07;2.23;;;;;;;8.37;100.00;98733.84;5057085;28;20507;-68
2023/10/21 01:26:37;;;;;;;4.33;2.30;;;;;;;8.40;100.00;98722.41;5056953;28;20468;-68
2023/10/21 01:29:09;;;;;;;5.20;1.70;;;;;;;8.34;100.00;98719.91;5056809;28;20438;-68
2023/10/21 01:31:36;;;;;;;4.93;2.47;;;;;;;8.38;100.00;98719.28;5056813;28;20424;-68
2023/10/21 01:34:02;;;;;;;3.37;1.47;;;;;;;8.37;100.00;98713.09;5062371;28;20855;-68
2023/10/21 01:36:32;;;;;;;4.90;1.90;;;;;;;8.36;100.00;98714.16;5077003;28;20461;-68
2023/10/21 01:38:59;;;;;;;6.70;2.80;;;;;;;8.32;100.00;98714.06;5076777;28;20477;-68
2023/10/21 01:41:27;;;;;;;6.90;2.13;;;;;;;8.37;100.00;98709.59;5076482;28;20441;-69
2023/10/21 01:43:53;;;;;;;5.67;2.20;;;;;;;8.37;100.00;98702.31;5076850;28;20469;-68
2023/10/21 01:46:20;;;;;;;4.63;2.20;;;;;;;8.35;100.00;98718.78;5076233;28;20995;-68
2023/10/21 01:48:47;;;;;;;5.20;2.03;;;;;;;8.35;100.00;98724.16;5076193;28;20440;-68
2023/10/21 01:51:13;;;;;;;5.50;2.43;;;;;;;8.38;100.00;98725.44;5076595;28;20444;-68
2023/10/21 01:53:40;;;;;;;3.70;1.37;;;;;;;8.37;100.00;98723.06;5075873;28;20802;-68
2023/10/21 01:56:06;;;;;;;6.30;2.43;;;;;;;8.41;100.00;98724.81;5076247;28;20528;-68
2023/10/21 01:58:36;;;;;;;6.63;2.40;;;;;;;8.43;100.00;98727.94;5075834;28;20433;-68
2023/10/21 02:01:08;;;;;;;6.23;2.00;;;;;;;8.50;100.00;98711.19;5076430;28;20437;-68
2023/10/21 02:03:35;;;;;;;3.67;1.83;;;;;;;8.52;100.00;98715.16;5076361;28;20794;-68
2023/10/21 02:06:05;;;;;;;10.70;2.67;;;;;;;8.55;100.00;98708.31;5075923;28;20452;-70
2023/10/21 02:08:32;;;;;;;8.80;2.83;;;;;;;8.55;100.00;98708.31;5076037;28;20451;-68
2023/10/21 02:10:59;;;;;;;6.43;1.40;;;;;;;8.55;100.00;98709.09;5065718;28;20541;-68
2023/10/21 02:13:25;;;;;;;6.37;2.20;;;;;;;8.57;100.00;98720.31;5055678;28;20434;-68
2023/10/21 02:15:53;;;;;;;4.60;1.93;;;;;;;8.55;100.00;98724.50;5055963;28;20438;-68
2023/10/21 02:18:20;;;;;;;4.57;2.17;;;;;;;8.61;100.00;98723.16;5066232;28;20513;-68
2023/10/21 02:20:46;;;;;;;5.33;2.27;;;;;;;8.63;100.00;98730.91;5074185;28;20559;-68
2023/10/21 02:23:13;;;;;;;7.30;2.40;;;;;;;8.66;100.00;98733.72;5074596;28;20532;-68
2023/10/21 02:25:40;;;;;;;5.47;2.17;;;;;;;8.69;100.00;98740.38;5073727;28;20456;-68
2023/10/21 02:28:06;;;;;;;4.43;2.27;;;;;;;8.69;100.00;98741.16;5062967;28;20466;-68
2023/10/21 02:30:33;;;;;;;10.07;2.97;;;;;;;8.72;100.00;98745.09;5057097;28;20968;-68
2023/10/21 02:33:03;;;;;;;5.10;2.00;;;;;;;8.72;100.00;98745.91;5069131;28;20446;-68
2023/10/21 02:35:33;;;;;;;5.23;2.67;;;;;;;8.72;100.00;98748.63;5061999;28;20509;-68
2023/10/21 02:38:00;;;;;;;5.70;2.47;;;;;;;8.73;100.00;98755.59;5060322;28;20541;-68
2023/10/21 02:40:26;;;;;;;6.63;2.43;;;;;;;8.69;100.00;98757.38;5057141;28;20486;-68
2023/10/21 02:42:53;;;;;;;5.07;2.40;;;;;;;8.69;100.00;98757.38;5075208;28;20520;-68
2023/10/21 02:45:19;;;;;;;6.83;2.40;;;;;;;8.67;100.00;98765.00;5075462;28;21003;-68
2023/10/21 02:47:46;;;;;;;6.00;3.10;;;;;;;8.66;100.00;98776.13;5075305;28;20462;-68
2023/10/21 02:50:16;;;;;;;4.07;1.93;;;;;;;8.64;100.00;98776.47;5075198;28;20438;-68
2023/10/21 02:52:43;;;;;;;4.20;1.80;;;;;;;8.66;100.00;98778.84;5078597;28;20442;-68
2023/10/21 02:55:11;;;;;;;5.40;2.23;;;;;;;8.67;100.00;98788.50;5075227;28;20470;-68
2023/10/21 02:57:38;;;;;;;4.00;1.90;;;;;;;8.67;100.00;98785.78;5055584;28;20553;-69
2023/10/21 03:00:10;;;;;;;4.93;2.10;;;;;;;8.63;100.00;98792.97;5055189;28;20486;-68
2023/10/21 03:02:37;;;;;;;6.00;2.90;;;;;;;8.63;100.00;98774.88;5055203;28;20427;-68
2023/10/21 03:05:05;;;;;;;3.60;2.07;;;;;;;8.68;100.00;98787.41;5058619;28;20449;-69
2023/10/21 03:07:33;;;;;;;4.07;2.17;;;;;;;8.69;100.00;98788.97;5062974;28;20466;-69
2023/10/21 03:10:00;;;;;;;7.00;2.10;;;;;;;8.68;100.00;98790.88;5074852;28;20450;-69
2023/10/21 03:12:26;;;;;;;5.07;2.13;;;;;;;8.72;100.00;98797.19;5070458;28;20548;-69
2023/10/21 03:14:53;;;;;;;8.53;3.00;;;;;;;8.73;100.00;98795.28;5056197;28;20992;-68
2023/10/21 03:17:20;;;;;;;4.50;2.23;;;;;;;8.79;100.00;98789.31;5059893;28;20533;-68
2023/10/21 03:19:47;;;;;;;5.47;2.70;;;;;;;8.79;100.00;98783.94;5074113;28;20487;-69
2023/10/21 03:22:13;;;;;;;4.60;2.57;;;;;;;8.84;100.00;98785.63;5074885;28;20446;-69
2023/10/21 03:24:41;;;;;;;4.77;1.90;;;;;;;8.83;100.00;98782.13;5074933;28;20437;-69
2023/10/21 03:27:09;;;;;;;6.50;2.53;;;;;;;8.84;100.00;98772.13;5074623;28;20472;-69
2023/10/21 03:29:35;;;;;;;9.50;2.73;;;;;;;8.87;100.00;98770.69;5068870;28;20514;-69
2023/10/21 03:32:02;;;;;;;6.27;1.80;;;;;;;8.89;100.00;98776.53;5054689;28;20961;-69
2023/10/21 03:34:29;;;;;;;5.00;2.50;;;;;;;8.93;100.00;98780.94;5054501;28;20521;-69
2023/10/21 03:36:55;;;;;;;5.00;2.10;;;;;;;8.90;100.00;98781.63;5054265;28;20458;-69
2023/10/21 03:39:22;;;;;;;11.40;3.50;;;;;;;8.86;100.00;98791.50;5054192;28;20869;-70
2023/10/21 03:41:50;;;;;;;7.30;2.70;;;;;;;8.90;100.00;98803.22;5054411;28;20444;-69
2023/10/21 03:44:16;;;;;;;6.03;2.60;;;;;;;8.88;100.00;98801.94;5054557;28;20525;-69
2023/10/21 03:46:43;;;;;;;5.20;2.40;;;;;;;8.84;100.00;98810.72;5054436;28;20842;-69
2023/10/21 03:49:10;;;;;;;4.23;1.83;;;;;;;8.80;100.00;98803.59;5053959;28;20446;-70
2023/10/21 03:51:37;;;;;;;7.17;2.33;;;;;;;8.80;100.00;98811.72;5053753;28;20960;-69
2023/10/21 03:54:05;;;;;;;5.43;2.43;;;;;;;8.78;100.00;98812.06;5053735;28;20438;-69
2023/10/21 03:56:32;;;;;;;7.83;2.70;;;;;;;8.78;100.00;98803.16;5053973;28;20524;-69
2023/10/21 03:59:00;;;;;;;3.17;1.23;;;;;;;8.75;100.00;98799.22;5054344;28;20535;-69
2023/10/21 04:01:26;;;;;;;5.27;2.80;;;;;;;8.69;100.00;98797.06;5053735;28;20490;-69
2023/10/21 04:03:53;;;;;;;5.37;2.30;;;;;;;8.73;100.00;98792.59;5053884;28;20524;-69
2023/10/21 04:06:19;;;;;;;6.27;2.60;;;;;;;8.70;100.00;98785.94;5061445;28;20540;-68
2023/10/21 04:08:46;;;;;;;4.43;1.70;;;;;;;8.70;100.00;98791.31;5073831;28;20542;-71
2023/10/21 04:11:13;;;;;;;5.00;2.57;;;;;;;8.75;100.00;98788.41;5072856;28;20436;-69
2023/10/21 04:13:40;;;;;;;4.93;2.00;;;;;;;8.73;100.00;98785.28;5056980;28;20941;-69
2023/10/21 04:16:08;;;;;;;5.40;1.90;;;;;;;8.77;100.00;98780.78;5062911;28;20460;-69
2023/10/21 04:18:34;;;;;;;8.53;2.40;;;;;;;8.80;100.00;98788.19;5053873;28;20440;-69
2023/10/21 04:21:01;;;;;;;3.20;1.30;;;;;;;8.81;100.00;98799.81;5071885;28;20572;-69
2023/10/21 04:23:27;;;;;;;8.47;2.30;;;;;;;8.82;100.00;98802.16;5073525;28;20520;-69
2023/10/21 04:25:54;;;;;;;5.13;2.37;;;;;;;8.86;100.00;98806.91;5074049;28;20441;-69
2023/10/21 04:28:20;;;;;;;7.50;2.13;;;;;;;8.87;100.00;98809.28;5073825;28;20437;-69
2023/10/21 04:30:47;;;;;;;8.13;2.40;;;;;;;8.92;100.00;98819.06;5074024;28;20433;-69
2023/10/21 04:33:16;;;;;;;4.97;2.63;;;;;;;8.92;100.00;98821.78;5055335;28;20446;-69
2023/10/21 04:35:42;;;;;;;5.47;2.63;;;;;;;8.89;100.00;98825.13;5053333;28;20438;-69
2023/10/21 04:38:09;;;;;;;5.13;2.33;;;;;;;8.94;100.00;98822.22;5053540;28;20458;-70
2023/10/21 04:40:36;;;;;;;6.40;2.70;;;;;;;8.90;100.00;98824.81;5053513;28;20482;-69
2023/10/21 04:43:04;;;;;;;7.47;2.37;;;;;;;8.88;100.00;98823.56;5053715;28;20488;-70
2023/10/21 04:45:30;;;;;;;4.90;2.50;;;;;;;8.90;100.00;98821.28;5055641;28;20438;-69
2023/10/21 04:47:57;;;;;;;5.57;2.10;;;;;;;8.93;100.00;98820.63;5057487;28;20469;-69
2023/10/21 04:50:25;;;;;;;5.63;2.53;;;;;;;8.92;100.00;98825.25;5057660;28;20469;-69
2023/10/21 04:52:52;;;;;;;7.20;2.53;;;;;;;8.92;100.00;98819.06;5057783;28;20505;-68
2023/10/21 04:55:20;;;;;;;8.00;3.47;;;;;;;8.90;100.00;98816.72;5057519;28;20470;-68
2023/10/21 04:57:47;;;;;;;5.90;3.23;;;;;;;8.91;100.00;98820.19;5057535;28;20462;-68
2023/10/21 05:00:15;;;;;;;4.90;2.03;;;;;;;8.87;100.00;98816.59;5057331;28;20489;-68
2023/10/21 05:02:42;;;;;;;7.20;2.07;;;;;;;8.89;100.00;98819.72;5057692;28;20511;-68
2023/10/21 05:05:09;;;;;;;5.37;3.07;;;;;;;8.89;100.00;98825.91;5057041;28;20442;-68
2023/10/21 05:07:37;;;;;;;5.27;2.23;;;;;;;8.87;100.00;98821.97;5057476;28;20461;-68
2023/10/21 05:10:05;;;;;;;4.90;1.93;;;;;;;8.81;100.00;98813.31;5076883;28;20445;-68
2023/10/21 05:12:32;;;;;;;4.93;1.97;;;;;;;8.78;100.00;98812.06;5076963;28;20498;-69
2023/10/21 05:14:58;;;;;;;6.30;1.90;;;;;;;8.79;100.00;98813.63;5077145;28;20968;-68
2023/10/21 05:17:25;;;;;;;6.77;1.80;;;;;;;8.82;100.00;98807.56;5071291;28;20540;-68
2023/10/21 05:19:51;;;;;;;9.60;2.00;;;;;;;8.77;100.00;98813.19;5064969;28;20528;-68
2023/10/21 05:22:18;;;;;;;4.63;2.43;;;;;;;8.82;100.00;98820.28;5076979;28;20445;-68
2023/10/21 05:24:46;;;;;;;5.93;2.23;;;;;;;8.89;100.00;98827.81;5065401;28;20438;-68
2023/10/21 05:27:13;;;;;;;5.47;2.27;;;;;;;8.91;100.00;98847.97;5056839;28;20973;-68
2023/10/21 05:29:39;;;;;;;3.10;1.40;;;;;;;8.89;100.00;98846.72;5057039;28;20524;-68
2023/10/21 05:32:07;;;;;;;5.63;2.17;;;;;;;8.93;100.00;98848.44;5056362;28;20469;-68
2023/10/21 05:34:34;;;;;;;4.00;1.90;;;;;;;8.89;100.00;98858.31;5056684;28;20442;-68
2023/10/21 05:37:00;;;;;;;5.43;2.20;;;;;;;8.93;100.00;98853.03;5068902;28;20833;-72
2023/10/21 05:39:27;;;;;;;2.97;1.47;;;;;;;8.94;100.00;98841.94;5077167;28;20528;-70
2023/10/21 05:41:55;;;;;;;5.47;2.57;;;;;;;8.92;100.00;98841.44;5077106;28;20567;-67
2023/10/21 05:44:21;;;;;;;3.70;2.20;;;;;;;8.99;100.00;98838.22;5076543;28;20866;-67
2023/10/21 05:46:48;;;;;;;4.07;2.20;;;;;;;9.00;100.00;98851.38;5076808;28;20493;-71
2023/10/21 05:49:15;;;;;;;3.60;1.30;;;;;;;8.98;100.00;98855.53;5076912;28;20441;-70
2023/10/21 05:51:42;;;;;;;4.53;2.33;;;;;;;9.00;100.00;98853.31;5076620;28;20517;-69
2023/10/21 05:54:08;;;;;;;4.43;1.83;;;;;;;8.98;100.00;98852.81;5076130;28;20998;-67
2023/10/21 05:56:35;;;;;;;4.10;2.40;;;;;;;8.93;100.00;98863.84;5074747;28;21056;-68
2023/10/21 05:59:04;;;;;;;3.93;1.87;;;;;;;8.92;100.00;98867.66;5076438;28;20448;-68
2023/10/21 06:01:30;;;;;;;6.77;2.40;;;;;;;8.95;100.00;98883.22;5076367;28;20491;-68
2023/10/21 06:03:57;;;;;;;7.10;2.70;;;;;;;9.00;100.00;98883.00;5076261;28;20439;-68
2023/10/21 06:06:23;;;;;;;4.80;2.20;;;;;;;9.00;100.00;98883.78;5075887;28;20461;-68
2023/10/21 06:11:18;;;;;;;4.70;2.10;;;;;;;9.07;100.00;98899.44;5086090;28;20473;-70
2023/10/21 06:13:44;;;;;;;5.93;2.87;;;;;;;9.03;100.00;98895.81;5075095;28;20444;-72
2023/10/21 06:16:12;;;;;;;6.17;2.10;;;;;;;9.03;100.00;98896.63;5081068;28;20459;-73
2023/10/21 06:18:39;;;;;;;4.40;1.77;;;;;;;9.02;100.00;98886.94;5075531;28;20439;-73
2023/10/21 06:21:05;;;;;;;7.93;3.00;;;;;;;9.06;100.00;98887.06;5075585;28;20519;-73
2023/10/21 06:23:32;;;;;;;4.87;2.27;;;;;;;9.07;100.00;98884.06;5076120;28;20483;-73
2023/10/21 06:25:58;;;;;;;10.57;1.80;;;;;;;9.13;100.00;98878.44;5075306;28;20437;-73
2023/10/21 06:28:25;;;;;;;4.83;1.93;;;;;;;9.16;100.00;98881.25;5075320;28;20444;-73
2023/10/21 06:30:52;;;;;;;6.00;2.20;;;;;;;9.18;100.00;98887.13;5075312;28;20437;-73
2023/10/21 06:33:21;;;;;;;9.63;2.43;;;;;;;9.17;100.00;98903.66;5075283;28;20529;-73
2023/10/21 06:35:48;;;;;;;4.57;1.80;;;;;;;9.17;100.00;98893.66;5075512;28;20434;-73
2023/10/21 06:38:14;;;;;;;5.93;2.53;;;;;;;9.19;100.00;98894.09;5075031;28;20452;-73
2023/10/21 06:40:41;;;;;;;3.67;1.60;;;;;;;9.26;100.00;98910.56;5075028;28;20572;-73
2023/10/21 06:43:07;;;;;;;5.23;2.30;;;;;;;9.29;100.00;98904.47;5075020;28;20445;-73
2023/10/21 06:45:36;;;;;;;11.40;2.30;;;;;;;9.32;100.00;98909.22;5074963;28;20524;-73
2023/10/21 06:48:04;;;;;;;6.23;2.77;;;;;;;9.31;100.00;98907.63;5074798;28;20465;-73
2023/10/21 06:50:32;;;;;;;3.30;1.47;;;;;;;9.29;100.00;98904.47;5074861;28;20434;-73
2023/10/21 06:52:59;;;;;;;5.67;2.53;;;;;;;9.31;100.00;98902.22;5075086;28;20437;-73
2023/10/21 06:55:26;;;;;;;6.73;2.70;;;;;;;9.30;100.00;98906.06;5075061;28;20433;-73
2023/10/21 06:57:53;;;;;;;4.73;2.53;;;;;;;9.31;100.00;98913.03;5075054;28;20472;-73
2023/10/21 07:00:20;;;;;;;6.03;2.63;;;;;;;9.32;100.00;98922.72;5074623;28;20443;-73
2023/10/21 07:02:46;;;;;;;4.40;2.20;;;;;;;9.37;100.00;98939.84;5074608;28;20441;-74
2023/10/21 07:05:13;;;;;;;6.43;2.40;;;;;;;9.39;100.00;98946.50;5075192;28;20529;-73
2023/10/21 07:07:42;;;;;;;4.83;2.40;;;;;;;9.45;100.00;98947.06;5074014;28;20540;-73
2023/10/21 07:10:10;;;;;;;6.20;1.97;;;;;;;9.49;100.00;98943.38;5074655;28;20473;-74
2023/10/21 07:12:38;;;;;;;3.13;1.30;;;;;;;9.49;100.00;98946.06;5074468;28;20437;-73
2023/10/21 07:15:05;;;;;;;4.93;2.37;;;;;;;9.54;100.00;98945.84;5074483;28;20532;-73
2023/10/21 07:17:32;;;;;;;5.93;2.83;;;;;;;9.57;100.00;98947.13;5074990;28;20457;-73
2023/10/21 07:20:00;;;;;;;6.67;2.53;;;;;;;9.62;100.00;98965.81;5074310;28;20441;-73
2023/10/21 07:22:26;;;;;;;4.93;2.00;;;;;;;9.64;100.00;98954.66;5074190;28;20519;-73
2023/10/21 07:24:58;;;;;;;4.40;2.20;;;;;;;9.67;100.00;98960.19;5074185;28;20442;-73
2023/10/21 07:27:26;;;;;;;5.00;3.27;;;;;;;9.72;100.00;98961.91;5074728;28;20464;-73
2023/10/21 07:29:52;;;;;;;4.40;1.87;;;;;;;9.75;100.00;98966.63;5073579;28;20974;-74
2023/10/21 07:32:19;;;;;;;5.50;3.00;;;;;;;9.78;100.00;98961.34;5072868;28;20440;-70
2023/10/21 07:34:45;;;;;;;9.27;3.10;;;;;;;9.81;100.00;98966.06;5074052;28;20441;-72
2023/10/21 07:37:13;;;;;;;9.93;2.63;;;;;;;9.84;100.00;98965.41;5073920;28;20544;-75
2023/10/21 07:39:40;;;;;;;8.33;2.30;;;;;;;9.85;100.00;98971.59;5074660;28;20495;-73
2023/10/21 07:42:08;;;;;;;5.30;2.30;;;;;;;9.88;100.00;98970.94;5074119;28;20481;-73
2023/10/21 07:44:34;;;;;;;5.43;2.40;;;;;;;9.91;100.00;98969.47;5074126;28;20442;-73
2023/10/21 07:47:01;;;;;;;4.47;2.00;;;;;;;9.91;100.00;98975.66;5073585;28;20548;-74
2023/10/21 07:49:28;;;;;;;9.40;2.60;;;;;;;9.95;100.00;98978.50;5073803;28;20465;-73
2023/10/21 07:51:55;;;;;;;3.40;1.67;;;;;;;9.98;100.00;98978.63;5074082;28;20440;-68
2023/10/21 07:54:21;;;;;;;4.50;2.07;;;;;;;10.01;100.00;98977.94;5074049;28;20433;-74
2023/10/21 07:56:50;;;;;;;6.43;3.00;;;;;;;10.02;100.00;98984.94;5073662;28;20461;-72
2023/10/21 07:59:18;;;;;;;5.33;2.20;;;;;;;10.08;100.00;98977.38;5073950;28;20471;-73
2023/10/21 08:01:45;;;;;;;3.77;2.03;;;;;;;10.17;100.00;98975.34;5073719;28;20500;-73
2023/10/21 08:04:11;;;;;;;8.57;3.60;;;;;;;10.23;100.00;98982.13;5074108;28;20476;-73
2023/10/21 08:06:38;;;;;;;5.47;2.37;;;;;;;10.30;100.00;98968.84;5073881;28;20544;-73
2023/10/21 08:09:05;;;;;;;8.70;3.20;;;;;;;10.42;100.00;98987.00;5073132;28;20972;-73
2023/10/21 08:11:32;;;;;;;4.53;2.00;;;;;;;10.52;100.00;98980.34;5073914;28;20418;-73
2023/10/21 08:13:59;;;;;;;6.17;3.13;;;;;;;10.63;100.00;98997.72;5073687;28;20437;-72
2023/10/21 08:16:27;;;;;;;4.60;2.50;;;;;;;10.72;100.00;99000.31;5073155;28;20461;-72
2023/10/21 08:18:54;;;;;;;3.90;1.90;;;;;;;10.81;100.00;99001.75;5073254;28;20456;-73
2023/10/21 08:21:21;;;;;;;4.57;2.10;;;;;;;10.88;100.00;99011.19;5073549;28;20485;-73
2023/10/21 08:23:47;;;;;;;9.20;3.50;;;;;;;10.98;100.00;99013.44;5073447;28;20528;-73
2023/10/21 08:26:14;;;;;;;4.43;2.50;;;;;;;11.03;100.00;99015.94;5073427;28;20449;-74
2023/10/21 08:28:41;;;;;;;5.87;3.10;;;;;;;11.11;100.00;99023.09;5074047;28;20441;-73
2023/10/21 08:31:08;;;;;;;7.37;2.47;;;;;;;11.06;100.00;99020.66;5073699;28;20612;-73
2023/10/21 08:33:36;;;;;;;8.73;3.63;;;;;;;11.09;100.00;99028.09;5072626;28;20447;-73
2023/10/21 08:36:03;;;;;;;6.13;2.50;;;;;;;11.18;100.00;99039.59;5073096;28;20437;-73
2023/10/21 08:38:29;;;;;;;4.57;2.50;;;;;;;11.28;100.00;99035.59;5073207;28;20938;-73
2023/10/21 08:40:56;;;;;;;6.20;3.90;;;;;;;11.40;100.00;99034.78;5073347;28;20526;-73
2023/10/21 08:43:23;;;;;;;9.20;3.27;;;;;;;11.53;100.00;99039.81;5073180;28;20516;-73
2023/10/21 08:45:52;;;;;;;4.23;2.10;;;;;;;11.64;100.00;99045.53;5073603;28;20530;-72
2023/10/21 08:48:18;;;;;;;6.50;3.00;;;;;;;11.74;100.00;99039.63;5072862;28;20442;-73
2023/10/21 08:50:49;;;;;;;5.70;2.90;;;;;;;11.83;100.00;99040.28;5072860;28;20981;-74
2023/10/21 08:53:16;;;;;;;5.03;2.67;;;;;;;11.78;100.00;99053.28;5073078;28;20421;-73
2023/10/21 08:55:44;;;;;;;4.90;2.30;;;;;;;11.77;100.00;99049.75;5072846;28;20840;-73
2023/10/21 08:58:11;;;;;;;5.57;3.00;;;;;;;11.78;100.00;99056.78;5073324;28;20843;-73
2023/10/21 09:00:38;;;;;;;5.63;3.00;;;;;;;11.82;100.00;99057.69;5073016;28;20445;-73
2023/10/21 09:03:05;;;;;;;7.47;3.77;;;;;;;11.88;100.00;99065.56;5073309;28;20489;-73
2023/10/21 09:05:34;;;;;;;6.00;2.73;;;;;;;11.90;100.00;99068.72;5073376;28;20513;-73
2023/10/21 09:08:02;;;;;;;5.40;2.50;;;;;;;11.98;100.00;99060.41;5073562;28;20461;-73
2023/10/21 09:10:30;;;;;;;5.33;2.63;;;;;;;12.05;100.00;99060.63;5072554;28;20526;-73
2023/10/21 09:12:57;;;;;;;5.57;2.60;;;;;;;12.16;100.00;99065.53;5072958;28;20434;-73
2023/10/21 09:15:35;;;;;;;11.27;3.37;;;;;;;12.23;100.00;99071.16;5072967;28;20468;-73
2023/10/21 09:18:09;;;;;;;5.03;2.70;;;;;;;12.33;100.00;99070.63;5065230;28;20461;-73
2023/10/21 09:20:38;;;;;;;6.60;3.23;;;;;;;12.38;100.00;99065.72;5052959;28;20410;-73
2023/10/21 09:23:06;;;;;;;7.63;2.80;;;;;;;12.44;100.00;99076.31;5052783;28;20496;-73
2023/10/21 09:25:33;;;;;;;7.17;3.20;;;;;;;12.47;100.00;99081.81;5052851;28;20446;-73
2023/10/21 09:27:59;;;;;;;6.23;3.00;;;;;;;12.55;100.00;99091.72;5052764;28;20537;-73
2023/10/21 09:30:27;;;;;;;6.03;3.73;;;;;;;12.65;100.00;99093.13;5072519;28;20438;-73
2023/10/21 09:33:01;;;;;;;6.47;3.40;;;;;;;12.75;100.00;99091.81;5076360;28;20443;-73
2023/10/21 09:35:29;;;;;;;9.40;3.50;;;;;;;12.78;100.00;99102.75;5075959;28;20435;-73
2023/10/21 09:37:57;;;;;;;5.87;2.77;;;;;;;12.81;100.00;99095.84;5076023;28;20460;-73
2023/10/21 09:40:25;;;;;;;7.63;3.43;;;;;;;12.83;100.00;99099.75;5076086;28;20645;-73
2023/10/21 09:42:53;;;;;;;7.67;3.67;;;;;;;12.84;100.00;99101.38;5075705;28;20487;-73
2023/10/21 09:45:21;;;;;;;7.13;3.50;;;;;;;12.93;100.00;99097.69;5076571;28;20853;-73
2023/10/21 09:47:48;;;;;;;8.17;3.90;;;;;;;13.02;100.00;99107.22;5075729;28;20460;-73
2023/10/21 09:50:16;;;;;;;6.53;2.80;;;;;;;13.10;100.00;99100.81;5075968;28;20441;-73
2023/10/21 09:52:55;;;;;;;8.00;4.63;;;;;;;13.18;100.00;99106.38;5076098;28;20437;-73
2023/10/21 09:55:25;;;;;;;6.97;3.50;;;;;;;13.27;100.00;99107.00;5055970;28;20414;-73
2023/10/21 09:57:54;;;;;;;6.23;3.37;;;;;;;13.33;100.00;99111.81;5056257;28;20469;-73
2023/10/21 10:00:21;;;;;;;6.93;3.23;;;;;;;13.41;100.00;99112.75;5055570;28;20953;-73
2023/10/21 10:02:48;;;;;;;6.63;3.07;;;;;;;13.41;100.00;99112.75;5055980;28;20486;-73
2023/10/21 10:05:16;;;;;;;9.00;3.70;;;;;;;13.53;100.00;99115.34;5056068;28;20507;-73
2023/10/21 10:07:45;;;;;;;5.20;2.97;;;;;;;13.56;100.00;99120.06;5055789;28;20798;-73
2023/10/21 10:10:13;;;;;;;4.70;2.43;;;;;;;13.64;100.00;99118.28;5055456;28;20454;-73
2023/10/21 10:12:45;;;;;;;5.10;2.70;;;;;;;13.67;100.00;99120.28;5056131;28;20968;-69
2023/10/21 10:15:34;;;;;;;5.43;3.07;;;;;;;13.67;100.00;99123.00;5055714;28;20427;-71
2023/10/21 10:18:02;;;;;;;5.23;2.93;;;;;;;13.75;100.00;99122.00;5055254;28;20981;-73
2023/10/21 10:20:30;;;;;;;6.23;3.17;;;;;;;13.91;100.00;99118.44;5055716;28;20488;-73
2023/10/21 10:22:58;;;;;;;6.33;3.37;;;;;;;14.04;100.00;99128.81;5055349;28;20474;-73
2023/10/21 10:25:27;;;;;;;9.20;3.37;;;;;;;14.18;100.00;99128.28;5055328;28;20793;-73
2023/10/21 10:28:00;;;;;;;6.07;2.70;;;;;;;14.26;100.00;99130.00;5055444;28;20545;-73
2023/10/21 10:30:31;;;;;;;5.17;2.63;;;;;;;14.35;100.00;99132.50;5064730;28;20479;-73
2023/10/21 10:33:01;;;;;;;4.97;2.37;;;;;;;14.42;100.00;99134.53;5074939;28;20784;-73
2023/10/21 10:35:31;;;;;;;5.47;2.70;;;;;;;14.47;100.00;99140.47;5075358;28;20429;-73
2023/10/21 10:37:59;;;;;;;5.20;2.73;;;;;;;14.51;100.00;99146.81;5075347;28;20461;-73
2023/10/21 10:40:33;;;;;;;3.83;2.00;;;;;;;14.55;100.00;99146.88;5074936;28;20449;-73
2023/10/21 10:43:03;;;;;;;4.53;2.00;;;;;;;14.59;100.00;99137.59;5073906;28;20476;-73
2023/10/21 10:45:31;;;;;;;7.53;2.13;;;;;;;14.70;100.00;99145.16;5074776;28;20448;-73
2023/10/21 10:48:01;;;;;;;5.27;2.27;;;;;;;14.77;100.00;99154.25;5074693;28;20552;-73
2023/10/21 10:50:28;;;;;;;4.93;2.47;;;;;;;14.89;100.00;99158.75;5074302;28;20441;-73
2023/10/21 10:52:55;;;;;;;5.17;2.37;;;;;;;15.04;100.00;99162.47;5074864;28;20465;-73
2023/10/21 10:55:22;;;;;;;3.40;1.60;;;;;;;15.29;100.00;99169.09;5074920;28;20996;-73
2023/10/21 10:57:51;;;;;;;3.63;1.63;;;;;;;15.75;100.00;99174.44;5074463;28;20851;-73
2023/10/21 11:00:25;;;;;;;3.77;1.83;;;;;;;16.25;100.00;99177.00;5074885;28;20453;-73
2023/10/21 11:02:52;;;;;;;5.13;1.40;;;;;;;16.94;100.00;99177.28;5074356;28;20471;-73
2023/10/21 11:05:21;;;;;;;3.03;1.20;;;;;;;17.38;100.00;99182.69;5074629;28;20523;-73
2023/10/21 11:07:48;;;;;;;2.60;1.07;;;;;;;17.53;97.16;99194.56;5070484;28;20460;-73
2023/10/21 11:10:20;;;;;;;2.73;1.07;;;;;;;17.65;96.06;99198.91;5074373;28;20640;-73
2023/10/21 11:12:47;;;;;;;1.97;0.50;;;;;;;17.65;92.76;99199.69;5074888;28;20430;-73
2023/10/21 11:15:14;;;;;;;2.60;0.60;;;;;;;17.57;93.26;99208.25;5074405;28;20528;-73
2023/10/21 11:17:42;;;;;;;1.97;0.47;;;;;;;17.50;92.32;99224.63;5074223;28;20503;-72
2023/10/21 11:20:10;;;;;;;1.87;0.50;;;;;;;17.38;94.53;99212.03;5074527;28;20477;-75
2023/10/21 11:22:37;;;;;;;2.20;0.50;;;;;;;17.39;94.10;99219.84;5073220;28;20505;-73
2023/10/21 11:25:06;;;;;;;1.90;0.50;;;;;;;17.32;94.77;99217.09;5074053;28;20536;-73
2023/10/21 11:27:33;;;;;;;2.07;0.40;;;;;;;17.29;93.86;99214.31;5074047;28;20461;-73
2023/10/21 11:30:01;;;;;;;2.10;0.50;;;;;;;17.30;94.46;99233.09;5074032;28;20521;-73
2023/10/21 11:32:31;;;;;;;2.00;0.60;;;;;;;17.26;95.24;99236.97;5073534;28;20495;-73
2023/10/21 11:35:03;;;;;;;1.80;0.40;;;;;;;17.24;95.92;99233.81;5073551;28;20513;-73